Time;durP1;ratioP1;P1;durP2;ratioP2;P2;SDS_P1;SDS_P2;PMS_P1;PMS_P2;Temp;Humidity;BMP_temperature;BMP_pressure;BME280_temperature;BME280_humidity;BME280_pressure;Samples;Min_cycle;Max_cycle;Signal;HPM_P1;HPM_P2
2023/05/11 00:02:30;;;;;;;21.88;6.95;;;12.50;99.90;;;;;;5090132;28;20133;-71
2023/05/11 00:04:55;;;;;;;18.83;6.93;;;12.50;99.90;;;;;;5093939;28;20110;-71
2023/05/11 00:07:24;;;;;;;20.63;7.22;;;12.50;99.90;;;;;;5093822;28;20130;-71
2023/05/11 00:09:53;;;;;;;17.27;7.50;;;12.50;99.90;;;;;;5090570;28;20036;-71
2023/05/11 00:12:18;;;;;;;21.27;8.05;;;12.50;99.90;;;;;;5093415;28;20035;-71
2023/05/11 00:14:44;;;;;;;16.52;6.78;;;12.40;99.90;;;;;;5093379;28;20032;-71
2023/05/11 00:17:10;;;;;;;24.13;8.32;;;12.40;99.90;;;;;;5091024;28;20028;-73
2023/05/11 00:19:36;;;;;;;23.25;7.47;;;12.40;99.90;;;;;;5098242;28;20061;-72
2023/05/11 00:22:02;;;;;;;15.35;6.63;;;12.40;99.90;;;;;;5094550;28;20171;-71
2023/05/11 00:24:28;;;;;;;23.73;7.13;;;12.40;99.90;;;;;;5088884;28;20070;-71
2023/05/11 00:26:54;;;;;;;18.88;6.68;;;12.40;99.90;;;;;;5092353;28;20531;-70
2023/05/11 00:29:20;;;;;;;19.15;6.70;;;12.30;99.90;;;;;;5090945;28;20041;-74
2023/05/11 00:31:48;;;;;;;18.45;6.88;;;12.40;99.90;;;;;;5092008;28;20054;-70
2023/05/11 00:34:20;;;;;;;21.27;7.32;;;12.40;99.90;;;;;;5093737;28;20081;-71
2023/05/11 00:36:46;;;;;;;23.88;7.45;;;12.40;99.90;;;;;;5096737;28;20030;-72
2023/05/11 00:39:12;;;;;;;22.15;7.18;;;12.40;99.90;;;;;;5095300;28;20028;-71
2023/05/11 00:41:38;;;;;;;20.13;7.40;;;12.40;99.90;;;;;;5093423;28;20024;-71
2023/05/11 00:44:04;;;;;;;16.63;7.65;;;12.40;99.90;;;;;;5096397;28;20031;-71
2023/05/11 00:46:30;;;;;;;17.98;6.78;;;12.30;99.90;;;;;;5089136;28;20036;-71
2023/05/11 00:48:56;;;;;;;19.83;7.45;;;12.30;99.90;;;;;;5090016;28;20035;-71
2023/05/11 00:51:21;;;;;;;20.45;6.93;;;12.30;99.90;;;;;;5086571;28;20076;-71
2023/05/11 00:53:48;;;;;;;23.13;7.43;;;12.30;99.90;;;;;;5094356;27;20028;-72
2023/05/11 00:56:14;;;;;;;16.40;6.30;;;12.20;99.90;;;;;;5093259;28;20395;-72
2023/05/11 00:58:40;;;;;;;19.20;6.68;;;12.20;99.90;;;;;;5094472;28;20521;-71
2023/05/11 01:01:05;;;;;;;17.75;6.22;;;12.10;99.90;;;;;;5096503;28;20020;-72
2023/05/11 01:03:33;;;;;;;17.65;6.30;;;12.10;99.90;;;;;;5087607;28;20042;-72
2023/05/11 01:06:10;;;;;;;17.58;6.78;;;12.00;99.90;;;;;;5096303;28;20036;-71
2023/05/11 01:08:45;;;;;;;20.73;7.05;;;11.90;99.90;;;;;;5086857;28;20515;-70
2023/05/11 01:11:15;;;;;;;19.23;6.60;;;11.90;99.90;;;;;;5095445;28;20043;-72
2023/05/11 01:14:05;;;;;;;17.95;6.97;;;11.80;99.90;;;;;;5095983;28;20065;-71
2023/05/11 01:16:36;;;;;;;19.58;6.47;;;11.80;99.90;;;;;;5088274;28;20082;-71
2023/05/11 01:19:11;;;;;;;17.48;6.50;;;11.70;99.90;;;;;;5092070;28;20051;-72
2023/05/11 01:21:38;;;;;;;16.45;6.47;;;11.70;99.90;;;;;;5093007;28;20035;-71
2023/05/11 01:24:36;;;;;;;19.85;7.15;;;11.70;99.90;;;;;;5094540;28;20020;-71
2023/05/11 01:27:30;;;;;;;21.17;6.95;;;11.70;99.90;;;;;;5088073;28;20543;-71
2023/05/11 01:30:20;;;;;;;19.65;7.05;;;11.70;99.90;;;;;;5091824;27;20031;-70
2023/05/11 01:32:46;;;;;;;;;;;11.70;99.90;;;;;;5092751;28;20085;-71
2023/05/11 01:35:18;;;;;;;19.38;7.00;;;11.80;99.90;;;;;;5099368;28;19916;-71
2023/05/11 01:37:56;;;;;;;23.38;7.50;;;11.80;99.90;;;;;;5092171;28;20574;-71
2023/05/11 01:40:28;;;;;;;21.20;7.40;;;11.80;99.90;;;;;;5090815;28;20047;-71
2023/05/11 01:43:06;;;;;;;21.90;8.35;;;11.80;99.90;;;;;;5094950;28;20040;-71
2023/05/11 01:45:37;;;;;;;26.52;8.55;;;11.90;99.90;;;;;;5088270;28;20036;-72
2023/05/11 01:48:06;;;;;;;24.08;8.07;;;11.90;99.90;;;;;;5091786;28;20115;-70
2023/05/11 01:50:33;;;;;;;19.05;6.85;;;11.90;99.90;;;;;;5095728;28;20043;-70
2023/05/11 01:53:01;;;;;;;19.02;7.93;;;11.90;99.90;;;;;;5092282;28;20451;-70
2023/05/11 01:55:31;;;;;;;18.65;6.95;;;11.90;99.90;;;;;;5094472;28;20076;-71
2023/05/11 01:57:58;;;;;;;19.63;7.17;;;11.90;99.90;;;;;;5095142;28;20039;-71
2023/05/11 02:00:24;;;;;;;22.35;7.25;;;11.90;99.90;;;;;;5097364;28;20090;-71
2023/05/11 02:02:54;;;;;;;18.30;6.63;;;11.90;99.90;;;;;;5090466;28;20119;-71
2023/05/11 02:05:22;;;;;;;16.23;7.05;;;11.90;99.90;;;;;;5092851;28;20572;-71
2023/05/11 02:07:57;;;;;;;18.02;6.60;;;11.90;99.90;;;;;;5093300;28;20115;-71
2023/05/11 02:10:26;;;;;;;21.48;6.65;;;11.90;99.90;;;;;;5091516;28;20047;-71
2023/05/11 02:12:57;;;;;;;23.53;8.40;;;11.90;99.90;;;;;;5094913;28;20059;-72
2023/05/11 02:15:27;;;;;;;19.00;6.88;;;11.90;99.90;;;;;;5096507;28;20811;-70
2023/05/11 02:17:53;;;;;;;17.98;6.57;;;11.90;99.90;;;;;;5089558;28;20028;-71
2023/05/11 02:20:19;;;;;;;20.30;7.22;;;11.90;99.90;;;;;;5092281;28;20035;-70
2023/05/11 02:22:46;;;;;;;16.63;7.30;;;11.90;99.90;;;;;;5094288;28;20119;-71
2023/05/11 02:25:18;;;;;;;19.15;7.28;;;11.90;99.90;;;;;;5094748;28;20031;-72
2023/05/11 02:27:49;;;;;;;21.30;7.80;;;11.90;99.90;;;;;;5094664;28;20028;-71
2023/05/11 02:30:15;;;;;;;20.88;8.07;;;11.80;99.90;;;;;;5096978;28;20024;-70
2023/05/11 02:32:48;;;;;;;20.73;8.18;;;11.90;99.90;;;;;;5095031;28;20032;-71
2023/05/11 02:35:24;;;;;;;19.83;7.25;;;11.90;99.90;;;;;;5096441;28;20031;-72
2023/05/11 02:37:54;;;;;;;23.27;7.88;;;11.80;99.90;;;;;;5096345;28;20043;-71
2023/05/11 02:40:28;;;;;;;22.27;7.68;;;11.90;99.90;;;;;;5095260;28;20798;-72
2023/05/11 02:43:09;;;;;;;24.38;7.85;;;11.90;99.90;;;;;;5084008;28;20041;-72
2023/05/11 02:45:40;;;;;;;19.38;7.57;;;11.90;99.90;;;;;;5086451;28;20040;-71
2023/05/11 02:48:10;;;;;;;24.25;7.63;;;11.80;99.90;;;;;;5092477;28;20060;-71
2023/05/11 02:50:40;;;;;;;20.58;6.97;;;11.80;99.90;;;;;;5092711;28;20036;-71
2023/05/11 02:53:13;;;;;;;19.55;6.60;;;11.80;99.90;;;;;;5098091;28;20496;-71
2023/05/11 02:55:39;;;;;;;23.17;7.57;;;11.80;99.90;;;;;;5097791;28;20080;-71
2023/05/11 02:58:05;;;;;;;17.85;7.57;;;11.90;99.90;;;;;;5096910;28;20380;-72
2023/05/11 03:00:30;;;;;;;20.80;7.03;;;11.80;99.90;;;;;;5098676;28;20031;-71
2023/05/11 03:02:58;;;;;;;18.13;7.10;;;11.80;99.90;;;;;;5100956;28;20035;-71
2023/05/11 03:05:29;;;;;;;18.73;7.45;;;11.80;99.90;;;;;;5092860;28;20043;-71
2023/05/11 03:07:58;;;;;;;24.65;8.02;;;11.80;99.90;;;;;;5093879;28;20031;-72
2023/05/11 03:10:30;;;;;;;21.77;7.70;;;11.80;99.90;;;;;;5089290;28;20150;-71
2023/05/11 03:13:04;;;;;;;24.70;8.98;;;11.90;99.90;;;;;;5084345;28;20032;-71
2023/05/11 03:15:30;;;;;;;24.40;8.68;;;11.90;99.90;;;;;;5093271;28;20130;-71
2023/05/11 03:17:57;;;;;;;23.88;8.38;;;11.80;99.90;;;;;;5097306;28;20028;-71
2023/05/11 03:20:24;;;;;;;21.17;7.78;;;11.90;99.90;;;;;;5090706;28;20082;-71
2023/05/11 03:22:51;;;;;;;26.23;8.75;;;11.80;99.90;;;;;;5099963;28;20063;-71
2023/05/11 03:25:21;;;;;;;29.30;8.75;;;11.80;99.90;;;;;;5094581;27;20066;-71
2023/05/11 03:27:52;;;;;;;29.38;8.80;;;11.80;99.90;;;;;;5095394;28;20131;-70
2023/05/11 03:30:19;;;;;;;29.90;9.48;;;11.90;99.90;;;;;;5097104;28;20032;-70
2023/05/11 03:32:51;;;;;;;28.73;8.77;;;11.90;99.90;;;;;;5096814;27;21516;-70
2023/05/11 03:35:17;;;;;;;28.90;7.75;;;11.80;99.90;;;;;;5094649;28;20117;-71
2023/05/11 03:37:43;;;;;;;37.15;9.32;;;11.80;99.90;;;;;;5091866;28;20492;-71
2023/05/11 03:40:13;;;;;;;33.17;8.02;;;11.80;99.90;;;;;;5090288;28;20036;-70
2023/05/11 03:42:41;;;;;;;37.55;8.73;;;11.80;99.90;;;;;;5089531;28;20525;-71
2023/05/11 03:45:13;;;;;;;30.67;8.88;;;11.80;99.90;;;;;;5091401;28;20028;-71
2023/05/11 03:47:40;;;;;;;41.15;9.00;;;11.80;99.90;;;;;;5096522;27;20571;-71
2023/05/11 03:50:07;;;;;;;25.52;8.70;;;11.80;99.90;;;;;;5097636;27;20049;-71
2023/05/11 03:52:34;;;;;;;25.27;7.80;;;11.80;99.90;;;;;;5097726;28;20068;-73
2023/05/11 03:55:01;;;;;;;33.22;8.95;;;11.80;99.90;;;;;;5091846;28;20059;-72
2023/05/11 03:57:29;;;;;;;28.63;8.65;;;11.80;99.90;;;;;;5090322;28;20036;-71
2023/05/11 03:59:55;;;;;;;23.98;8.30;;;11.80;99.90;;;;;;5095867;28;20036;-71
2023/05/11 04:02:26;;;;;;;24.90;8.98;;;11.80;99.90;;;;;;5094081;27;20395;-71
2023/05/11 04:04:52;;;;;;;23.55;8.13;;;11.80;99.90;;;;;;5084006;28;20660;-71
2023/05/11 04:07:18;;;;;;;26.55;7.88;;;11.80;99.90;;;;;;5090607;28;20047;-71
2023/05/11 04:09:44;;;;;;;23.75;8.02;;;11.80;99.90;;;;;;5089946;28;20024;-71
2023/05/11 04:12:12;;;;;;;22.83;8.23;;;11.90;99.90;;;;;;5090530;28;20400;-71
2023/05/11 04:14:38;;;;;;;19.15;6.93;;;11.80;99.90;;;;;;5092789;28;20059;-71
2023/05/11 04:17:04;;;;;;;20.73;7.93;;;11.80;99.90;;;;;;5091304;28;20079;-71
2023/05/11 04:19:29;;;;;;;24.20;7.70;;;11.90;99.90;;;;;;5094375;28;20051;-70
2023/05/11 04:21:58;;;;;;;20.10;7.07;;;11.90;99.90;;;;;;5090291;28;20028;-71
2023/05/11 04:24:23;;;;;;;23.65;8.82;;;11.90;99.90;;;;;;5091223;28;20028;-70
2023/05/11 04:26:54;;;;;;;22.27;8.07;;;11.90;99.90;;;;;;5092779;28;20088;-71
2023/05/11 04:29:20;;;;;;;23.15;7.82;;;11.90;99.90;;;;;;5095980;28;20738;-69
2023/05/11 04:31:45;;;;;;;22.13;7.80;;;11.90;99.90;;;;;;5087538;28;20028;-71
2023/05/11 04:34:11;;;;;;;23.15;7.38;;;11.90;99.90;;;;;;5095494;28;20063;-70
2023/05/11 04:36:37;;;;;;;23.98;7.97;;;12.00;99.90;;;;;;5092912;28;20024;-74
2023/05/11 04:39:03;;;;;;;20.02;7.75;;;12.00;99.90;;;;;;5092029;28;20053;-71
2023/05/11 04:41:28;;;;;;;20.55;7.57;;;12.00;99.90;;;;;;5092405;28;20028;-71
2023/05/11 04:43:54;;;;;;;17.02;7.13;;;12.10;99.90;;;;;;5091462;28;20036;-72
2023/05/11 04:46:29;;;;;;;19.75;8.25;;;12.00;99.90;;;;;;5091464;28;20070;-72
2023/05/11 04:48:54;;;;;;;20.00;8.10;;;12.10;99.90;;;;;;5086756;28;20024;-72
2023/05/11 04:51:23;;;;;;;21.15;8.50;;;12.10;99.90;;;;;;5090143;28;20472;-71
2023/05/11 04:53:51;;;;;;;24.05;8.73;;;12.10;99.90;;;;;;5091702;28;20035;-71
2023/05/11 04:56:17;;;;;;;22.45;9.18;;;12.10;99.90;;;;;;5094533;28;20040;-70
2023/05/11 04:58:42;;;;;;;21.05;7.95;;;12.10;99.90;;;;;;5087686;28;21498;-71
2023/05/11 05:01:08;;;;;;;21.20;8.52;;;12.10;99.90;;;;;;5091538;28;20036;-72
2023/05/11 05:03:33;;;;;;;22.00;8.10;;;12.20;99.90;;;;;;5089720;28;20500;-71
2023/05/11 05:05:59;;;;;;;24.38;8.93;;;12.20;99.90;;;;;;5087637;28;20035;-71
2023/05/11 05:08:25;;;;;;;22.70;8.70;;;12.20;99.90;;;;;;5090152;28;20039;-70
2023/05/11 05:10:50;;;;;;;21.65;8.07;;;12.20;99.90;;;;;;5091100;27;20039;-71
2023/05/11 05:13:16;;;;;;;18.27;7.80;;;12.30;99.90;;;;;;5086734;28;20050;-73
2023/05/11 05:15:44;;;;;;;22.58;8.40;;;12.30;99.90;;;;;;5088642;28;20492;-71
2023/05/11 05:18:10;;;;;;;20.92;7.85;;;12.30;99.90;;;;;;5089979;28;20032;-71
2023/05/11 05:20:35;;;;;;;17.92;7.78;;;12.30;99.90;;;;;;5088393;28;20046;-71
2023/05/11 05:23:01;;;;;;;18.98;7.90;;;12.40;99.90;;;;;;5086300;28;20043;-70
2023/05/11 05:25:27;;;;;;;20.55;7.93;;;12.40;99.90;;;;;;5085978;28;20034;-72
2023/05/11 05:27:52;;;;;;;20.20;7.75;;;12.40;99.90;;;;;;5087428;28;20039;-72
2023/05/11 05:30:18;;;;;;;20.25;8.45;;;12.40;99.90;;;;;;5085498;28;20040;-71
2023/05/11 05:32:44;;;;;;;23.40;8.43;;;12.50;99.90;;;;;;5092209;28;21456;-72
2023/05/11 05:35:12;;;;;;;22.42;9.38;;;12.50;99.90;;;;;;5092764;28;20372;-70
2023/05/11 05:37:37;;;;;;;20.42;8.43;;;12.50;99.90;;;;;;5090829;28;21399;-71
2023/05/11 05:40:04;;;;;;;19.05;7.95;;;12.50;99.90;;;;;;5086820;28;20032;-70
2023/05/11 05:42:30;;;;;;;21.15;8.13;;;12.60;99.90;;;;;;5089386;28;20150;-71
2023/05/11 05:44:55;;;;;;;21.88;9.15;;;12.60;99.90;;;;;;5088772;28;20166;-70
2023/05/11 05:47:21;;;;;;;19.90;8.02;;;12.60;99.90;;;;;;5084594;28;20127;-71
2023/05/11 05:49:46;;;;;;;20.75;7.80;;;12.60;99.90;;;;;;5090472;28;20551;-72
2023/05/11 05:52:12;;;;;;;22.13;9.25;;;12.60;99.90;;;;;;5086026;28;20499;-71
2023/05/11 05:54:37;;;;;;;22.92;8.77;;;12.60;99.90;;;;;;5088735;28;20047;-73
2023/05/11 05:57:06;;;;;;;22.90;8.70;;;12.70;99.90;;;;;;5087631;28;20024;-71
2023/05/11 05:59:32;;;;;;;18.52;8.40;;;12.70;99.90;;;;;;5087201;28;20093;-73
2023/05/11 06:01:59;;;;;;;19.83;7.78;;;12.70;99.90;;;;;;5085465;28;20521;-71
2023/05/11 06:04:28;;;;;;;18.73;7.53;;;12.70;99.90;;;;;;5089484;28;20039;-70
2023/05/11 06:06:54;;;;;;;18.77;7.40;;;12.70;99.90;;;;;;5088494;28;20511;-71
2023/05/11 06:09:20;;;;;;;19.58;7.80;;;12.70;99.90;;;;;;5087536;28;20039;-72
2023/05/11 06:11:46;;;;;;;22.25;9.10;;;12.80;99.90;;;;;;5088328;28;20373;-72
2023/05/11 06:14:11;;;;;;;18.30;7.30;;;12.80;99.90;;;;;;5087857;28;20039;-72
2023/05/11 06:16:37;;;;;;;16.70;7.55;;;12.80;99.90;;;;;;5087455;28;20065;-72
2023/05/11 06:19:07;;;;;;;21.90;7.32;;;12.80;99.90;;;;;;5086847;28;20127;-70
2023/05/11 06:21:32;;;;;;;23.08;8.48;;;12.90;99.90;;;;;;5089434;28;20028;-71
2023/05/11 06:23:58;;;;;;;23.10;8.65;;;13.00;99.90;;;;;;5087784;28;20039;-71
2023/05/11 06:26:24;;;;;;;25.17;8.63;;;12.90;99.90;;;;;;5087486;28;20043;-71
2023/05/11 06:28:50;;;;;;;22.45;7.88;;;13.00;99.90;;;;;;5089302;28;20189;-71
2023/05/11 06:31:19;;;;;;;22.98;9.23;;;13.10;99.90;;;;;;5091074;28;20043;-70
2023/05/11 06:33:45;;;;;;;21.80;8.75;;;13.10;99.90;;;;;;5088142;28;20035;-71
2023/05/11 06:36:10;;;;;;;24.90;8.93;;;13.20;99.90;;;;;;5087487;28;20028;-69
2023/05/11 06:38:36;;;;;;;20.52;8.55;;;13.20;99.90;;;;;;5089579;28;20188;-71
2023/05/11 06:41:01;;;;;;;19.35;8.50;;;13.30;99.90;;;;;;5091955;28;20036;-70
2023/05/11 06:43:27;;;;;;;21.90;8.30;;;13.30;99.90;;;;;;5086291;28;20048;-72
2023/05/11 06:45:52;;;;;;;19.55;8.27;;;13.30;99.90;;;;;;5087694;28;20523;-71
2023/05/11 06:48:18;;;;;;;19.77;7.65;;;13.40;99.90;;;;;;5092471;28;20054;-71
2023/05/11 06:50:44;;;;;;;22.17;8.65;;;13.50;99.90;;;;;;5085909;28;20027;-73
2023/05/11 06:53:10;;;;;;;19.05;7.60;;;13.50;99.90;;;;;;5089120;28;20052;-71
2023/05/11 06:55:41;;;;;;;17.77;7.93;;;13.60;99.90;;;;;;5087201;28;20024;-70
2023/05/11 06:58:10;;;;;;;19.10;8.25;;;13.60;99.90;;;;;;5088236;28;20047;-71
2023/05/11 07:00:38;;;;;;;18.20;7.07;;;13.70;99.90;;;;;;5083518;28;20036;-71
2023/05/11 07:03:05;;;;;;;19.77;7.63;;;13.70;99.90;;;;;;5088099;28;20190;-71
2023/05/11 07:05:30;;;;;;;18.85;7.18;;;13.80;99.90;;;;;;5086602;28;20123;-70
2023/05/11 07:07:56;;;;;;;16.40;6.03;;;13.80;99.90;;;;;;5082992;28;20119;-70
2023/05/11 07:10:22;;;;;;;11.45;5.03;;;13.90;99.90;;;;;;5087103;28;20353;-70
2023/05/11 07:12:48;;;;;;;14.27;5.70;;;13.90;99.90;;;;;;5084348;28;20074;-71
2023/05/11 07:15:14;;;;;;;12.75;5.07;;;14.00;99.90;;;;;;5082229;28;20058;-70
2023/05/11 07:17:39;;;;;;;11.38;5.25;;;14.10;99.90;;;;;;5082868;28;20036;-72
2023/05/11 07:20:06;;;;;;;10.85;4.72;;;14.20;99.90;;;;;;5090352;28;20059;-70
2023/05/11 07:22:31;;;;;;;12.95;5.45;;;14.20;99.90;;;;;;5081897;28;20040;-71
2023/05/11 07:24:58;;;;;;;14.35;5.80;;;14.30;99.90;;;;;;5083721;28;20512;-71
2023/05/11 07:27:27;;;;;;;13.13;5.57;;;14.50;99.90;;;;;;5084408;28;20055;-71
2023/05/11 07:29:53;;;;;;;13.60;4.70;;;14.70;99.90;;;;;;5082600;28;20040;-71
2023/05/11 07:32:18;;;;;;;13.73;5.38;;;15.00;99.90;;;;;;5084125;28;20036;-71
2023/05/11 07:34:44;;;;;;;12.77;5.03;;;15.20;99.90;;;;;;5084128;28;20039;-71
2023/05/11 07:37:10;;;;;;;7.97;4.28;;;15.40;99.90;;;;;;5084235;28;20122;-72
2023/05/11 07:39:36;;;;;;;9.57;4.07;;;15.80;99.90;;;;;;5082982;28;20103;-70
2023/05/11 07:42:02;;;;;;;13.13;5.45;;;16.30;99.90;;;;;;5087080;28;20055;-71
2023/05/11 07:44:31;;;;;;;8.80;4.05;;;16.70;99.90;;;;;;5086856;28;20060;-70
2023/05/11 07:46:57;;;;;;;10.70;4.60;;;17.00;99.90;;;;;;5086739;28;20111;-70
2023/05/11 07:49:23;;;;;;;8.50;4.22;;;17.10;99.90;;;;;;5087860;28;20503;-71
2023/05/11 07:51:49;;;;;;;8.75;4.00;;;17.10;99.90;;;;;;5086805;28;20043;-71
2023/05/11 07:54:14;;;;;;;6.65;3.58;;;17.10;99.90;;;;;;5083230;28;20055;-71
2023/05/11 07:56:40;;;;;;;7.28;3.58;;;17.20;99.90;;;;;;5089515;28;20055;-70
2023/05/11 07:59:06;;;;;;;8.57;4.38;;;17.30;99.90;;;;;;5086759;28;20058;-70
2023/05/11 08:01:32;;;;;;;8.70;3.83;;;17.40;99.90;;;;;;5090625;28;20028;-71
2023/05/11 08:03:58;;;;;;;9.55;4.10;;;17.20;99.90;;;;;;5086387;28;20040;-71
2023/05/11 08:06:26;;;;;;;9.15;4.57;;;17.00;99.90;;;;;;5090083;28;20036;-70
2023/05/11 08:08:52;;;;;;;6.70;3.35;;;16.80;99.90;;;;;;5087173;28;20267;-69
2023/05/11 08:11:18;;;;;;;8.18;3.97;;;16.70;99.90;;;;;;5087798;28;20095;-69
2023/05/11 08:13:49;;;;;;;8.82;4.07;;;16.60;99.90;;;;;;5085687;28;20077;-70
2023/05/11 08:16:15;;;;;;;8.90;4.30;;;16.70;99.90;;;;;;5087197;28;20049;-69
2023/05/11 08:18:41;;;;;;;10.80;4.18;;;16.70;99.90;;;;;;5087002;28;20369;-70
2023/05/11 08:21:07;;;;;;;9.13;4.40;;;16.60;99.90;;;;;;5088632;28;20035;-72
2023/05/11 08:23:32;;;;;;;11.32;5.18;;;16.50;99.90;;;;;;5084293;28;20044;-72
2023/05/11 08:25:58;;;;;;;10.27;4.30;;;16.40;99.90;;;;;;5089842;28;20035;-72
2023/05/11 08:28:24;;;;;;;9.98;3.90;;;16.50;99.90;;;;;;5088042;28;20516;-70
2023/05/11 08:30:56;;;;;;;9.02;4.18;;;16.50;99.90;;;;;;5089230;28;20047;-72
2023/05/11 08:33:22;;;;;;;10.98;4.72;;;16.70;99.90;;;;;;5086609;28;20471;-70
2023/05/11 08:35:48;;;;;;;8.60;4.35;;;16.80;99.90;;;;;;5085992;28;20032;-70
2023/05/11 08:38:17;;;;;;;9.15;4.70;;;17.00;99.90;;;;;;5086909;28;20028;-70
2023/05/11 08:40:46;;;;;;;10.02;4.75;;;17.20;99.90;;;;;;5081059;28;20040;-70
2023/05/11 08:43:17;;;;;;;8.02;4.20;;;17.40;99.90;;;;;;5086314;28;20123;-71
2023/05/11 08:45:46;;;;;;;11.90;4.05;;;17.50;99.90;;;;;;5084844;28;20472;-69
2023/05/11 08:48:17;;;;;;;12.33;4.23;;;17.60;99.90;;;;;;5089090;28;20031;-70
2023/05/11 08:50:46;;;;;;;5.75;3.00;;;17.80;99.90;;;;;;5082099;28;20028;-70
2023/05/11 08:53:12;;;;;;;8.15;3.78;;;17.90;99.90;;;;;;5087910;28;20059;-70
2023/05/11 08:55:40;;;;;;;6.47;3.03;;;17.80;99.90;;;;;;5087369;28;20058;-69
2023/05/11 08:58:06;;;;;;;7.60;3.85;;;17.70;99.90;;;;;;5089333;28;20032;-72
2023/05/11 09:00:33;;;;;;;6.53;3.45;;;17.70;99.90;;;;;;5085486;28;20123;-70
2023/05/11 09:03:02;;;;;;;8.57;3.97;;;17.80;99.90;;;;;;5082676;28;20044;-71
2023/05/11 09:05:30;;;;;;;9.03;3.33;;;17.80;99.90;;;;;;5086414;28;20058;-69
2023/05/11 09:08:00;;;;;;;10.90;3.40;;;17.80;99.90;;;;;;5087087;28;20277;-70
2023/05/11 09:10:26;;;;;;;6.07;3.22;;;17.80;99.90;;;;;;5088745;28;20092;-70
2023/05/11 09:12:53;;;;;;;6.55;2.90;;;18.10;99.90;;;;;;5084266;28;20135;-70
2023/05/11 09:15:19;;;;;;;9.25;3.47;;;18.30;99.90;;;;;;5086910;28;20158;-70
2023/05/11 09:17:44;;;;;;;10.23;4.63;;;18.50;99.90;;;;;;5083406;28;20373;-72
2023/05/11 09:20:10;;;;;;;9.50;4.00;;;18.90;99.90;;;;;;5087386;28;20035;-72
2023/05/11 09:22:44;;;;;;;12.05;5.32;;;19.50;99.90;;;;;;5085919;28;20593;-71
2023/05/11 09:25:11;;;;;;;8.25;4.07;;;19.70;99.90;;;;;;5088051;28;20028;-72
2023/05/11 09:27:45;;;;;;;7.20;3.80;;;19.80;99.90;;;;;;5085764;28;20028;-71
2023/05/11 09:30:15;;;;;;;7.43;4.30;;;19.80;99.90;;;;;;5086266;28;20036;-71
2023/05/11 09:32:50;;;;;;;8.95;4.18;;;19.70;99.90;;;;;;5086511;28;20039;-72
2023/05/11 09:35:20;;;;;;;16.15;4.50;;;19.80;99.90;;;;;;5084606;28;20047;-72
2023/05/11 09:38:03;;;;;;;7.78;3.88;;;19.80;99.90;;;;;;5086772;28;20036;-70
2023/05/11 09:40:34;;;;;;;6.68;3.75;;;19.70;99.90;;;;;;5084281;28;20118;-71
2023/05/11 09:43:24;;;;;;;5.57;3.25;;;19.50;99.90;;;;;;5083609;28;20028;-71
2023/05/11 09:46:05;;;;;;;7.38;3.80;;;19.40;99.90;;;;;;5084115;28;20036;-71
2023/05/11 09:48:31;;;;;;;9.50;4.10;;;19.20;99.90;;;;;;5087727;28;20039;-70
2023/05/11 09:51:04;;;;;;;7.47;4.10;;;19.20;99.90;;;;;;5081331;28;20031;-70
2023/05/11 09:53:39;;;;;;;7.20;3.28;;;19.20;99.90;;;;;;5084201;28;20104;-71
2023/05/11 09:56:06;;;;;;;5.55;3.08;;;19.50;99.90;;;;;;5084328;28;20080;-71
2023/05/11 09:58:49;;;;;;;7.57;3.58;;;19.90;99.90;;;;;;5086067;28;20040;-71
2023/05/11 10:01:27;;;;;;;6.82;3.75;;;20.30;99.90;;;;;;5089869;28;20028;-71
2023/05/11 10:03:53;;;;;;;6.97;3.70;;;20.40;99.90;;;;;;5082655;28;20054;-71
2023/05/11 10:06:19;;;;;;;7.22;3.33;;;20.30;99.90;;;;;;5086219;28;20450;-71
2023/05/11 10:08:45;;;;;;;6.18;3.10;;;20.10;99.90;;;;;;5088411;28;20028;-73
2023/05/11 10:11:11;;;;;;;6.63;3.45;;;19.90;99.90;;;;;;5089525;28;20037;-71
2023/05/11 10:13:38;;;;;;;7.72;4.25;;;19.80;99.90;;;;;;5084817;28;20380;-72
2023/05/11 10:16:05;;;;;;;7.25;3.83;;;19.60;99.90;;;;;;5085150;28;20052;-71
2023/05/11 10:18:32;;;;;;;13.25;4.78;;;19.40;99.90;;;;;;5084103;28;20039;-71
2023/05/11 10:20:58;;;;;;;7.50;3.95;;;19.30;99.90;;;;;;5081563;28;20460;-71
2023/05/11 10:23:25;;;;;;;8.88;4.50;;;19.20;99.90;;;;;;5086579;28;20100;-70
2023/05/11 10:25:54;;;;;;;13.25;4.95;;;19.40;99.90;;;;;;5088193;28;20040;-71
2023/05/11 10:28:21;;;;;;;10.93;5.63;;;19.70;99.90;;;;;;5089040;28;20454;-71
2023/05/11 10:30:51;;;;;;;7.65;4.25;;;20.00;99.90;;;;;;5082845;28;20040;-71
2023/05/11 10:33:16;;;;;;;;;;;20.30;99.90;;;;;;5089319;28;20039;-71
2023/05/11 10:35:44;;;;;;;7.22;4.03;;;20.30;99.90;;;;;;5088365;28;19927;-71
2023/05/11 10:38:15;;;;;;;7.57;4.35;;;20.60;99.90;;;;;;5083980;28;20085;-72
2023/05/11 10:40:43;;;;;;;11.95;5.28;;;20.80;99.90;;;;;;5086025;28;20097;-71
2023/05/11 10:43:24;;;;;;;8.15;4.20;;;20.80;99.90;;;;;;5088969;28;20032;-71
2023/05/11 10:46:31;;;;;;;6.78;3.42;;;20.80;99.90;;;;;;5087169;28;20779;-71
2023/05/11 10:48:57;;;;;;;8.70;4.20;;;20.70;99.90;;;;;;5084372;28;20032;-71
2023/05/11 10:51:38;;;;;;;7.03;4.00;;;20.70;99.90;;;;;;5089306;28;20035;-71
2023/05/11 10:54:35;;;;;;;8.43;4.18;;;21.00;99.90;;;;;;5091501;28;21626;-72
2023/05/11 10:57:20;;;;;;;6.35;3.63;;;21.20;99.90;;;;;;5083912;28;20077;-70
2023/05/11 11:00:11;;;;;;;6.70;3.95;;;21.50;99.90;;;;;;5086618;28;20047;-70
2023/05/11 11:02:37;;;;;;;8.88;3.80;;;21.80;99.90;;;;;;5082629;28;20107;-72
2023/05/11 11:05:12;;;;;;;10.85;4.18;;;22.00;99.90;;;;;;5088132;28;20108;-72
2023/05/11 11:08:02;;;;;;;8.68;4.50;;;22.00;99.90;;;;;;5088249;28;20032;-73
2023/05/11 11:10:37;;;;;;;9.13;4.30;;;21.90;99.90;;;;;;5085391;28;20024;-72
2023/05/11 11:13:08;;;;;;;8.82;4.60;;;21.80;99.90;;;;;;5083586;28;20020;-71
2023/05/11 11:15:52;;;;;;;8.52;4.38;;;21.40;99.90;;;;;;5091556;28;20028;-71
2023/05/11 11:18:25;;;;;;;7.65;4.00;;;20.70;99.90;;;;;;5093157;28;20088;-70
2023/05/11 11:20:53;;;;;;;7.63;4.35;;;20.00;99.90;;;;;;5089707;28;20140;-72
2023/05/11 11:23:43;;;;;;;7.57;4.18;;;19.40;99.90;;;;;;5091079;28;20052;-72
2023/05/11 11:26:09;;;;;;;;;;;18.70;99.90;;;;;;5091991;28;20032;-71
2023/05/11 11:28:53;;;;;;;6.50;3.85;;;18.20;99.90;;;;;;5094742;28;20096;-71
2023/05/11 11:31:30;;;;;;;6.72;4.03;;;17.80;99.90;;;;;;5092280;28;20110;-71
2023/05/11 11:33:59;;;;;;;7.43;3.65;;;17.50;99.90;;;;;;5089347;27;20028;-70
2023/05/11 11:37:00;;;;;;;6.65;3.58;;;17.40;99.90;;;;;;5092651;27;20369;-71
2023/05/11 11:39:48;;;;;;;8.02;3.63;;;17.20;99.90;;;;;;5088315;28;20487;-71
2023/05/11 11:42:29;;;;;;;11.15;3.45;;;17.00;99.90;;;;;;5091883;28;20024;-70
2023/05/11 11:45:31;;;;;;;8.13;4.10;;;16.90;99.90;;;;;;5088624;28;20032;-72
2023/05/11 11:48:13;;;;;;;9.75;4.78;;;16.70;99.90;;;;;;5085533;28;20055;-71
2023/05/11 11:50:40;;;;;;;11.10;4.50;;;16.50;99.90;;;;;;5085753;28;20028;-71
2023/05/11 11:53:10;;;;;;;11.63;5.00;;;16.20;99.90;;;;;;5090348;28;20032;-71
2023/05/11 11:55:49;;;;;;;7.53;2.97;;;15.90;99.90;;;;;;5088390;28;20122;-71
2023/05/11 11:58:43;;;;;;;7.28;3.78;;;15.60;99.90;;;;;;5086443;28;20282;-72
2023/05/11 12:01:11;;;;;;;7.07;3.22;;;15.30;99.90;;;;;;5087930;28;20040;-71
2023/05/11 12:03:38;;;;;;;6.53;2.97;;;15.00;99.90;;;;;;5091344;28;20407;-71
2023/05/11 12:06:05;;;;;;;7.35;3.45;;;14.70;99.90;;;;;;5086541;28;20036;-70
2023/05/11 12:08:31;;;;;;;10.30;3.45;;;14.50;99.90;;;;;;5088416;28;20040;-71
2023/05/11 12:11:00;;;;;;;6.32;3.00;;;14.40;99.90;;;;;;5088700;28;20029;-71
2023/05/11 12:13:27;;;;;;;6.60;3.63;;;14.30;99.90;;;;;;5087599;28;20132;-71
2023/05/11 12:16:13;;;;;;;6.80;3.70;;;14.30;99.90;;;;;;5083891;28;20048;-70
2023/05/11 12:18:39;;;;;;;6.22;2.85;;;14.20;99.90;;;;;;5118934;27;20036;-72
2023/05/11 12:21:05;;;;;;;10.73;4.00;;;14.20;99.90;;;;;;5090904;28;20048;-71
2023/05/11 12:23:31;;;;;;;8.77;2.95;;;14.20;99.90;;;;;;5084205;28;20075;-71
2023/05/11 12:26:04;;;;;;;10.05;3.97;;;14.20;99.90;;;;;;5082775;28;20024;-73
2023/05/11 12:28:29;;;;;;;7.28;3.25;;;14.30;99.90;;;;;;5086133;28;20059;-70
2023/05/11 12:30:56;;;;;;;6.65;3.10;;;14.30;99.90;;;;;;5085902;28;20538;-71
2023/05/11 12:33:25;;;;;;;6.25;2.90;;;14.30;99.90;;;;;;5088704;28;20043;-70
2023/05/11 12:35:52;;;;;;;6.68;3.58;;;14.30;99.90;;;;;;5087766;28;20403;-70
2023/05/11 12:38:17;;;;;;;5.47;2.88;;;14.30;99.90;;;;;;5092044;28;20032;-70
2023/05/11 12:40:52;;;;;;;8.18;3.22;;;14.20;99.90;;;;;;5086286;28;20746;-71
2023/05/11 12:43:21;;;;;;;6.22;3.58;;;14.30;99.90;;;;;;5091169;28;20104;-71
2023/05/11 12:45:48;;;;;;;6.80;2.65;;;14.30;99.90;;;;;;5087258;28;20032;-70
2023/05/11 12:48:14;;;;;;;6.22;2.78;;;14.30;99.90;;;;;;5085417;28;20122;-72
2023/05/11 12:50:40;;;;;;;5.00;2.58;;;14.50;99.90;;;;;;5087640;28;20092;-72
2023/05/11 12:53:14;;;;;;;6.55;2.85;;;14.40;99.90;;;;;;5087806;28;20024;-71